createdAt,value
2018-09-30T00:03:23.751Z,10.41
2018-09-30T00:08:28.038Z,10.25
2018-09-30T00:13:32.224Z,10.35
2018-09-30T00:18:36.534Z,10.33
2018-09-30T00:23:46.088Z,10.27
2018-09-30T00:28:50.488Z,10.23
2018-09-30T00:33:59.982Z,10.19
2018-09-30T00:39:05.344Z,10.21
2018-09-30T00:44:09.678Z,10.17
2018-09-30T00:49:14.428Z,10.09
2018-09-30T00:54:18.858Z,10.06
2018-09-30T00:59:23.195Z,10.00
2018-09-30T01:04:28.318Z,10.03
2018-09-30T01:09:32.519Z,10.03
2018-09-30T01:14:36.862Z,9.99
2018-09-30T01:19:41.138Z,10.01
2018-09-30T01:24:45.391Z,9.95
2018-09-30T01:29:49.646Z,9.79
2018-09-30T01:34:53.920Z,9.82
2018-09-30T01:39:58.200Z,9.78
2018-09-30T01:45:02.434Z,9.77
2018-09-30T01:50:06.648Z,9.70
2018-09-30T01:55:11.112Z,9.61
2018-09-30T02:00:16.098Z,9.56
2018-09-30T02:05:20.806Z,9.53
2018-09-30T02:10:25.018Z,9.50
2018-09-30T02:15:29.188Z,9.48
2018-09-30T02:20:33.538Z,9.47
2018-09-30T02:25:37.820Z,9.49
2018-09-30T02:30:42.098Z,9.42
2018-09-30T02:35:46.296Z,9.37
2018-09-30T02:40:50.734Z,9.34
2018-09-30T02:45:55.082Z,9.27
2018-09-30T02:50:59.673Z,9.25
2018-09-30T02:56:03.890Z,9.26
2018-09-30T03:01:08.279Z,9.26
2018-09-30T03:06:16.650Z,9.30
2018-09-30T03:11:20.936Z,9.29
2018-09-30T03:16:25.238Z,9.23
2018-09-30T03:21:29.521Z,9.15
2018-09-30T03:26:34.025Z,9.04
2018-09-30T03:31:38.387Z,9.07
2018-09-30T03:36:42.829Z,9.05
2018-09-30T03:41:47.257Z,9.01
2018-09-30T03:46:51.491Z,9.02
2018-09-30T03:51:55.839Z,9.00
2018-09-30T03:57:00.238Z,8.98
2018-09-30T04:02:04.527Z,8.89
2018-09-30T04:07:08.959Z,8.82
2018-09-30T04:12:13.378Z,8.75
2018-09-30T04:17:17.668Z,8.70
2018-09-30T04:22:21.838Z,8.69
2018-09-30T04:27:26.102Z,8.70
2018-09-30T04:32:30.437Z,8.69
2018-09-30T04:37:34.819Z,8.70
2018-09-30T04:42:39.075Z,8.69
2018-09-30T04:47:43.383Z,8.65
2018-09-30T04:52:47.721Z,8.60
2018-09-30T04:57:51.975Z,8.52
2018-09-30T05:02:56.337Z,8.56
2018-09-30T05:08:00.609Z,8.59
2018-09-30T05:13:04.900Z,8.56
2018-09-30T05:18:09.317Z,8.55
2018-09-30T05:23:13.575Z,8.53
2018-09-30T05:28:17.773Z,8.50
2018-09-30T05:33:22.607Z,8.48
2018-09-30T05:38:26.873Z,8.41
2018-09-30T05:43:31.061Z,8.40
2018-09-30T05:48:35.847Z,8.35
2018-09-30T05:53:39.963Z,8.26
2018-09-30T05:58:45.349Z,8.25
2018-09-30T06:03:50.658Z,8.23
2018-09-30T06:08:55.059Z,8.21
2018-09-30T06:13:59.534Z,8.10
2018-09-30T06:19:03.720Z,8.12
2018-09-30T06:24:08.290Z,8.15
2018-09-30T06:29:12.491Z,8.16
2018-09-30T06:34:16.861Z,8.20
2018-09-30T06:39:21.105Z,8.32
2018-09-30T06:44:25.610Z,8.43
2018-09-30T06:49:29.937Z,8.50
2018-09-30T06:54:34.099Z,8.53
2018-09-30T06:59:38.645Z,8.62
2018-09-30T07:04:42.991Z,8.64
2018-09-30T07:09:47.591Z,8.78
2018-09-30T07:14:51.872Z,8.98
2018-09-30T07:19:56.742Z,9.09
2018-09-30T07:25:01.373Z,9.23
2018-09-30T07:30:06.051Z,9.43
2018-09-30T07:35:10.483Z,9.67
2018-09-30T07:40:14.905Z,9.91
2018-09-30T07:45:20.341Z,10.12
2018-09-30T07:50:24.771Z,10.31
2018-09-30T07:55:29.073Z,10.48
2018-09-30T08:00:33.263Z,10.66
2018-09-30T08:05:37.489Z,10.90
2018-09-30T08:10:42.127Z,11.24
2018-09-30T08:15:46.885Z,11.52
2018-09-30T08:20:51.211Z,11.87
2018-09-30T08:25:55.539Z,12.16
2018-09-30T08:30:59.839Z,12.44
2018-09-30T08:36:10.163Z,12.72
2018-09-30T08:41:14.599Z,12.97
2018-09-30T08:46:18.977Z,13.35
2018-09-30T08:51:23.205Z,13.75
2018-09-30T08:56:27.495Z,14.25
2018-09-30T09:01:31.855Z,14.80
2018-09-30T09:06:36.222Z,15.30
2018-09-30T09:11:40.424Z,15.92
2018-09-30T09:16:44.690Z,16.87
2018-09-30T09:21:48.957Z,17.83
2018-09-30T09:26:53.397Z,18.81
2018-09-30T09:31:58.827Z,20.44
2018-09-30T09:37:02.972Z,22.41
2018-09-30T09:42:07.522Z,23.85
2018-09-30T09:47:11.282Z,24.85
2018-09-30T09:52:14.747Z,26.48
2018-09-30T09:57:18.467Z,26.10
2018-09-30T10:02:22.225Z,26.64
2018-09-30T10:07:26.056Z,26.37
2018-09-30T10:12:29.669Z,25.62
2018-09-30T10:17:33.245Z,24.24
2018-09-30T10:22:36.582Z,23.07
2018-09-30T10:27:40.071Z,21.14
2018-09-30T10:32:43.421Z,19.70
2018-09-30T10:37:46.839Z,18.68
2018-09-30T10:42:50.236Z,17.94
2018-09-30T10:47:53.715Z,17.51
2018-09-30T10:52:57.997Z,17.06
2018-09-30T10:58:03.150Z,16.75
2018-09-30T11:03:07.745Z,16.57
2018-09-30T11:08:11.175Z,16.42
2018-09-30T11:13:14.674Z,16.29
2018-09-30T11:18:18.137Z,16.25
2018-09-30T11:23:21.711Z,16.26
2018-09-30T11:28:26.083Z,16.23
2018-09-30T11:33:30.472Z,16.22
2018-09-30T11:38:34.792Z,16.32
2018-09-30T11:43:39.257Z,16.82
2018-09-30T11:48:43.599Z,17.90
2018-09-30T11:53:48.709Z,19.30
2018-09-30T11:58:53.120Z,20.37
2018-09-30T12:03:57.485Z,21.50
2018-09-30T12:09:01.887Z,21.36
2018-09-30T12:14:06.165Z,22.34
2018-09-30T12:19:10.536Z,23.00
2018-09-30T12:24:14.849Z,23.12
2018-09-30T12:29:19.298Z,23.42
2018-09-30T12:34:23.633Z,23.53
2018-09-30T12:39:28.237Z,23.76
2018-09-30T12:44:32.665Z,24.01
2018-09-30T12:49:38.035Z,24.56
2018-09-30T12:54:42.553Z,25.23
2018-09-30T12:59:47.665Z,25.65
2018-09-30T13:04:51.993Z,26.33
2018-09-30T13:09:56.383Z,26.83
2018-09-30T13:15:00.890Z,27.03
2018-09-30T13:20:05.416Z,27.21
2018-09-30T13:25:10.425Z,27.71
2018-09-30T13:30:19.984Z,27.46
2018-09-30T13:35:24.524Z,26.31
2018-09-30T13:40:29.021Z,24.95
2018-09-30T13:45:33.348Z,24.11
2018-09-30T13:50:37.989Z,23.82
2018-09-30T13:55:42.506Z,23.81
2018-09-30T14:00:47.282Z,23.45
2018-09-30T14:05:51.722Z,23.13
2018-09-30T14:10:56.332Z,22.84
2018-09-30T14:16:01.010Z,22.00
2018-09-30T14:21:05.285Z,21.64
2018-09-30T14:26:09.778Z,21.08
2018-09-30T14:31:14.469Z,20.42
2018-09-30T14:36:18.931Z,20.00
2018-09-30T14:41:24.292Z,19.96
2018-09-30T14:46:28.663Z,19.76
2018-09-30T14:51:32.997Z,19.50
2018-09-30T14:56:37.432Z,19.24
2018-09-30T15:01:42.373Z,19.08
2018-09-30T15:06:46.746Z,19.01
2018-09-30T15:11:51.082Z,19.00
2018-09-30T15:16:55.452Z,18.82
2018-09-30T15:22:00.107Z,18.72
2018-09-30T15:27:04.331Z,18.64
2018-09-30T15:32:09.081Z,18.59
2018-09-30T15:37:14.190Z,18.58
2018-09-30T15:42:18.490Z,18.45
2018-09-30T15:47:23.105Z,18.43
2018-09-30T15:52:27.567Z,18.29
2018-09-30T15:57:32.111Z,18.25
2018-09-30T16:02:36.589Z,18.16
2018-09-30T16:07:41.008Z,17.98
2018-09-30T16:12:45.412Z,17.93
2018-09-30T16:17:49.841Z,17.86
2018-09-30T16:22:54.587Z,17.79
2018-09-30T16:27:59.180Z,17.65
2018-09-30T16:33:03.817Z,17.59
2018-09-30T16:38:08.447Z,17.46
2018-09-30T16:43:12.909Z,17.36
2018-09-30T16:48:17.640Z,17.24
2018-09-30T16:53:27.462Z,17.09
2018-09-30T16:58:32.326Z,16.99
2018-09-30T17:03:37.018Z,16.86
2018-09-30T17:08:41.830Z,16.71
2018-09-30T17:13:46.576Z,16.62
2018-09-30T17:18:51.123Z,16.48
2018-09-30T17:23:55.695Z,16.37
2018-09-30T17:29:00.281Z,16.24
2018-09-30T17:34:04.648Z,16.14
2018-09-30T17:39:14.098Z,16.02
2018-09-30T17:44:18.753Z,15.92
2018-09-30T17:49:24.512Z,15.83
2018-09-30T17:54:29.224Z,15.73
2018-09-30T17:59:34.004Z,15.60
2018-09-30T18:04:38.433Z,15.51
2018-09-30T18:09:42.939Z,15.45
2018-09-30T18:14:47.446Z,15.29
2018-09-30T18:19:52.217Z,15.17
2018-09-30T18:24:56.767Z,15.14
2018-09-30T18:30:00.990Z,15.01
2018-09-30T18:35:05.385Z,14.90
2018-09-30T18:40:09.781Z,14.76
2018-09-30T18:45:14.448Z,14.71
2018-09-30T18:50:18.828Z,14.70
2018-09-30T18:55:23.661Z,14.63
2018-09-30T19:00:28.159Z,14.55
2018-09-30T19:05:32.904Z,14.41
2018-09-30T19:10:37.389Z,14.31
2018-09-30T19:15:42.070Z,14.27
2018-09-30T19:20:46.749Z,14.19
2018-09-30T19:25:51.235Z,14.13
2018-09-30T19:30:55.775Z,14.01
2018-09-30T19:36:00.216Z,13.91
2018-09-30T19:41:09.571Z,13.87
2018-09-30T19:46:13.970Z,13.87
2018-09-30T19:51:18.341Z,13.80
2018-09-30T19:56:22.759Z,13.77
2018-09-30T20:01:27.256Z,13.69
2018-09-30T20:06:31.535Z,13.63
2018-09-30T20:11:36.157Z,13.54
2018-09-30T20:16:40.720Z,13.48
2018-09-30T20:21:45.226Z,13.38
2018-09-30T20:26:49.878Z,13.33
2018-09-30T20:31:54.333Z,13.28
2018-09-30T20:36:58.610Z,13.22
2018-09-30T20:42:02.995Z,13.17
2018-09-30T20:47:07.266Z,13.14
2018-09-30T20:52:11.560Z,13.04
2018-09-30T20:57:15.936Z,12.97
2018-09-30T21:02:20.240Z,12.97
2018-09-30T21:07:24.763Z,12.90
2018-09-30T21:12:29.257Z,12.82
2018-09-30T21:17:33.660Z,12.81
2018-09-30T21:22:37.926Z,12.72
2018-09-30T21:27:42.156Z,12.66
2018-09-30T21:32:46.604Z,12.64
2018-09-30T21:37:51.480Z,12.63
2018-09-30T21:42:55.812Z,12.60
2018-09-30T21:48:00.725Z,12.59
2018-09-30T21:53:05.262Z,12.56
2018-09-30T21:58:09.559Z,12.49
2018-09-30T22:03:14.613Z,12.37
2018-09-30T22:08:18.952Z,12.44
2018-09-30T22:13:23.532Z,12.49
2018-09-30T22:18:27.957Z,12.26
2018-09-30T22:23:32.380Z,12.15
2018-09-30T22:28:36.586Z,12.02
2018-09-30T22:33:40.835Z,11.99
2018-09-30T22:38:45.566Z,11.95
2018-09-30T22:43:49.796Z,12.07
2018-09-30T22:48:54.036Z,12.05
2018-09-30T22:53:58.231Z,12.00
2018-09-30T22:59:03.070Z,11.93
2018-09-30T23:04:07.344Z,11.84
2018-09-30T23:09:11.509Z,11.81
2018-09-30T23:14:15.666Z,11.81
2018-09-30T23:19:19.832Z,11.74
2018-09-30T23:24:24.078Z,11.64
2018-09-30T23:29:28.210Z,11.62
2018-09-30T23:34:32.429Z,11.63
2018-09-30T23:39:36.976Z,11.62
2018-09-30T23:44:41.239Z,11.53
2018-09-30T23:49:45.473Z,11.44
2018-09-30T23:54:49.777Z,11.34
2018-09-30T23:59:54.021Z,11.28
